Chrisanthi — SX7108 — position and weather

sailwx.info

Track history (hours):
 
Tides and Currents Weather Stations Pressure Air Temp Water Temp Dewpoint Dewpoint Depression Visibility Wind Speed Wind Dir Waves Ship Positions

Chrisanthi

Last reported at 2015-Jul-29 13:33 UTC. Time now 2015-Jul-30 12:09 UTC.
Position N 36°54' E 026°54'.

Length 56 m; draft 3.9 m.

Type: Tanker. MMSI: 237009100.

Date/timePositionNaut miles runAvg speedWind from/ knotsBaromVisibWave heightAir tempDewpointWater temp
2015-Jul-29 13:33N 36°54' E 026°54'1010.5
2015-Jul-29 12:33N 36°51' E 026°42'1010.4
2015-Jul-29 11:33N 36°47' E 026°29'1010.0
2015-Jul-29 10:33N 36°44' E 026°17'1010.4
2015-Jul-29 09:33N 36°41' E 026°05'1010.4
2015-Jul-29 08:33N 36°37' E 025°53'1110.7
2015-Jul-29 07:33N 36°34' E 025°40'1010.5
2015-Jul-29 06:33N 36°31' E 025°28'7 6.7
2015-Jul-29 05:33N 36°25' E 025°25'2 1.7
2015-Jul-29 04:33N 36°23' E 025°26'0 0.0
2015-Jul-29 03:33N 36°23' E 025°26'0 0.0
2015-Jul-29 02:31N 36°23' E 025°26'0 0.0
2015-Jul-29 01:32N 36°23' E 025°26'0 0.0
2015-Jul-29 00:33N 36°23' E 025°26'0 0.0
2015-Jul-28 23:33N 36°23' E 025°26'0 0.0
2015-Jul-28 22:33N 36°23' E 025°26'0 0.0
2015-Jul-28 21:32N 36°23' E 025°26'0 0.0
2015-Jul-28 20:33N 36°23' E 025°26'1 1.0
2015-Jul-28 19:33N 36°24' E 025°25'21 4.8
2015-Jul-28 15:10N 36°43' E 025°14'1710.3
2015-Jul-28 13:31N 36°49' E 024°54'6310.2
2015-Jul-28 07:21N 37°25' E 023°50'910.7
2015-Jul-28 06:33N 37°30' E 023°41'1010.1
2015-Jul-28 05:33N 37°37' E 023°31'1010.1
2015-Jul-28 04:33N 37°40' E 023°19'1010.2
2015-Jul-28 03:32N 37°49' E 023°12'6 0.3
2015-Jul-27 09:33N 37°54' E 023°10'1010.7
2015-Jul-27 08:34N 37°52' E 023°23'10 9.8
2015-Jul-27 07:33N 37°56' E 023°35'1 1.4
2015-Jul-27 06:33N 37°57' E 023°35'0 0.0
2015-Jul-27 05:33N 37°57' E 023°35'0 0.0
2015-Jul-27 04:33N 37°57' E 023°35'0 0.0
2015-Jul-27 03:33N 37°57' E 023°35'0 0.0
2015-Jul-27 02:33N 37°57' E 023°35'0 0.1
2015-Jul-27 01:33N 37°57' E 023°35'0 0.1
2015-Jul-27 00:33N 37°57' E 023°35'0 0.0
2015-Jul-26 23:33N 37°57' E 023°35'0 0.0
2015-Jul-26 22:33N 37°57' E 023°35'0 0.0
2015-Jul-26 21:33N 37°57' E 023°35'0 0.0
2015-Jul-26 20:33N 37°57' E 023°35'0 0.0
2015-Jul-26 19:33N 37°57' E 023°35'0 0.0
2015-Jul-26 18:33N 37°57' E 023°35'0 0.0
2015-Jul-26 17:33N 37°57' E 023°35'0 0.0
2015-Jul-26 16:33N 37°57' E 023°35'0 0.0
2015-Jul-26 15:33N 37°57' E 023°35'5 5.3
2015-Jul-26 14:33N 37°53' E 023°31'1010.0
2015-Jul-26 13:33N 37°52' E 023°18'1010.1
2015-Jul-26 12:32N 37°55' E 023°05'0 0.0
2015-Jul-26 05:33N 37°55' E 023°05'0 0.0
2015-Jul-26 03:32N 37°55' E 023°05'0 0.0
2015-Jul-26 02:33N 37°55' E 023°05'0 0.0
2015-Jul-26 01:31N 37°55' E 023°05'0 0.0
2015-Jul-26 00:31N 37°55' E 023°05'0 0.0
2015-Jul-25 23:33N 37°55' E 023°05'0 0.1
2015-Jul-25 17:27N 37°55' E 023°06'0 0.0
2015-Jul-25 16:29N 37°55' E 023°06'0 0.0
2015-Jul-25 15:29N 37°55' E 023°06'0 0.0
2015-Jul-25 13:10N 37°55' E 023°06'0 0.0
2015-Jul-25 12:26N 37°55' E 023°06'0 0.0
2015-Jul-25 11:14N 37°55' E 023°06'0 0.0
2015-Jul-25 10:33N 37°55' E 023°06'0 0.0
2015-Jul-25 09:25N 37°55' E 023°06'0 0.1
2015-Jul-25 08:25N 37°55' E 023°06'3 2.0
2015-Jul-25 07:09N 37°54' E 023°09'910.5
2015-Jul-25 06:17N 37°52' E 023°20'710.1
2015-Jul-25 05:33N 37°50' E 023°29'9 9.1
2015-Jul-25 04:33N 37°48' E 023°40'1010.0
2015-Jul-25 03:33N 37°40' E 023°48'5210.4
2015-Jul-24 22:33N 37°21' E 024°49'1111.4
2015-Jul-24 21:33N 37°16' E 025°02'1111.3
2015-Jul-24 20:34N 37°11' E 025°15'8 7.6
2015-Jul-24 19:33N 37°06' E 025°22'0 0.2
2015-Jul-24 18:33N 37°06' E 025°22'0 0.4
2015-Jul-24 17:34N 37°06' E 025°22'0 0.0
2015-Jul-24 16:33N 37°06' E 025°22'0 0.0
2015-Jul-24 15:33N 37°06' E 025°22'1 0.7
2015-Jul-24 14:33N 37°06' E 025°21'0 0.5
2015-Jul-24 13:34N 37°06' E 025°22'9 8.8
2015-Jul-24 12:33N 37°09' E 025°11'4 3.3
2015-Jul-24 11:26N 37°05' E 025°09'0 0.0
2015-Jul-24 04:32N 37°05' E 025°09'1 0.6
2015-Jul-24 03:32N 37°06' E 025°08'0 0.0
2015-Jul-24 02:31N 37°06' E 025°08'0 0.0
2015-Jul-24 01:33N 37°06' E 025°08'0 0.0
2015-Jul-24 00:32N 37°06' E 025°08'0 0.0
2015-Jul-23 23:30N 37°06' E 025°08'0 0.0
2015-Jul-23 22:31N 37°06' E 025°08'0 0.0
2015-Jul-23 21:32N 37°06' E 025°08'0 0.0
2015-Jul-23 20:28N 37°06' E 025°08'2 1.9
2015-Jul-23 19:33N 37°05' E 025°07'34 5.4
2015-Jul-23 13:11N 36°32' E 025°20'710.5
2015-Jul-23 12:33N 36°26' E 025°23'4 3.5
2015-Jul-23 11:32N 36°23' E 025°26'0 0.0
2015-Jul-23 10:33N 36°23' E 025°26'0 0.0
2015-Jul-23 09:33N 36°23' E 025°26'0 0.0
2015-Jul-23 08:33N 36°23' E 025°26'0 0.0
2015-Jul-23 07:33N 36°23' E 025°26'0 0.0
2015-Jul-23 06:32N 36°23' E 025°26'0 0.0
2015-Jul-23 05:32N 36°23' E 025°26'0 0.0
2015-Jul-23 04:33N 36°23' E 025°26'0 0.0
2015-Jul-23 03:33N 36°23' E 025°26'6 6.3
2015-Jul-23 02:33N 36°29' E 025°22'1010.4
2015-Jul-23 01:33N 36°31' E 025°34'1110.9
2015-Jul-23 00:33N 36°33' E 025°47'1010.1
2015-Jul-22 23:32N 36°35' E 025°60'16 1.9
2015-Jul-22 15:10N 36°37' E 026°19'14 8.6
2015-Jul-22 13:33N 36°44' E 026°34'1010.1
2015-Jul-22 12:33N 36°47' E 026°46'21 2.9
2015-Jul-22 05:07N 36°55' E 027°11'5 0.1
2015-Jul-20 16:33N 36°56' E 027°17'1010.5
2015-Jul-20 15:33N 36°56' E 027°04'4 0.2
2015-Jul-19 17:08N 36°55' E 026°59'7 9.6
2015-Jul-19 16:27N 36°57' E 026°51'1110.0
2015-Jul-19 15:20N 37°02' E 026°38'8 9.8
2015-Jul-19 14:29N 37°05' E 026°29'  
Track history (hours):
 
Tides and Currents Weather Stations Pressure Air Temp Water Temp Dewpoint Dewpoint Depression Visibility Wind Speed Wind Dir Waves Ship Positions

Chrisanthi

Last reported at 2015-Jul-29 13:33 UTC. Time now 2015-Jul-30 12:09 UTC.
Position N 36°54' E 026°54'.

Length 56 m; draft 3.9 m.

Type: Tanker. MMSI: 237009100.

Date/timePositionNaut miles runAvg speedWind from/ knotsBaromVisibWave heightAir tempDewpointWater temp
2015-Jul-29 13:33N 36°54' E 026°54'1010.5
2015-Jul-29 12:33N 36°51' E 026°42'1010.4
2015-Jul-29 11:33N 36°47' E 026°29'1010.0
2015-Jul-29 10:33N 36°44' E 026°17'1010.4
2015-Jul-29 09:33N 36°41' E 026°05'1010.4
2015-Jul-29 08:33N 36°37' E 025°53'1110.7
2015-Jul-29 07:33N 36°34' E 025°40'1010.5
2015-Jul-29 06:33N 36°31' E 025°28'7 6.7
2015-Jul-29 05:33N 36°25' E 025°25'2 1.7
2015-Jul-29 04:33N 36°23' E 025°26'0 0.0
2015-Jul-29 03:33N 36°23' E 025°26'0 0.0
2015-Jul-29 02:31N 36°23' E 025°26'0 0.0
2015-Jul-29 01:32N 36°23' E 025°26'0 0.0
2015-Jul-29 00:33N 36°23' E 025°26'0 0.0
2015-Jul-28 23:33N 36°23' E 025°26'0 0.0
2015-Jul-28 22:33N 36°23' E 025°26'0 0.0
2015-Jul-28 21:32N 36°23' E 025°26'0 0.0
2015-Jul-28 20:33N 36°23' E 025°26'1 1.0
2015-Jul-28 19:33N 36°24' E 025°25'21 4.8
2015-Jul-28 15:10N 36°43' E 025°14'1710.3
2015-Jul-28 13:31N 36°49' E 024°54'6310.2
2015-Jul-28 07:21N 37°25' E 023°50'910.7
2015-Jul-28 06:33N 37°30' E 023°41'1010.1
2015-Jul-28 05:33N 37°37' E 023°31'1010.1
2015-Jul-28 04:33N 37°40' E 023°19'1010.2
2015-Jul-28 03:32N 37°49' E 023°12'6 0.3
2015-Jul-27 09:33N 37°54' E 023°10'1010.7
2015-Jul-27 08:34N 37°52' E 023°23'10 9.8
2015-Jul-27 07:33N 37°56' E 023°35'1 1.4
2015-Jul-27 06:33N 37°57' E 023°35'0 0.0
2015-Jul-27 05:33N 37°57' E 023°35'0 0.0
2015-Jul-27 04:33N 37°57' E 023°35'0 0.0
2015-Jul-27 03:33N 37°57' E 023°35'0 0.0
2015-Jul-27 02:33N 37°57' E 023°35'0 0.1
2015-Jul-27 01:33N 37°57' E 023°35'0 0.1
2015-Jul-27 00:33N 37°57' E 023°35'0 0.0
2015-Jul-26 23:33N 37°57' E 023°35'0 0.0
2015-Jul-26 22:33N 37°57' E 023°35'0 0.0
2015-Jul-26 21:33N 37°57' E 023°35'0 0.0
2015-Jul-26 20:33N 37°57' E 023°35'0 0.0
2015-Jul-26 19:33N 37°57' E 023°35'0 0.0
2015-Jul-26 18:33N 37°57' E 023°35'0 0.0
2015-Jul-26 17:33N 37°57' E 023°35'0 0.0
2015-Jul-26 16:33N 37°57' E 023°35'0 0.0
2015-Jul-26 15:33N 37°57' E 023°35'5 5.3
2015-Jul-26 14:33N 37°53' E 023°31'1010.0
2015-Jul-26 13:33N 37°52' E 023°18'1010.1
2015-Jul-26 12:32N 37°55' E 023°05'0 0.0
2015-Jul-26 05:33N 37°55' E 023°05'0 0.0
2015-Jul-26 03:32N 37°55' E 023°05'0 0.0
2015-Jul-26 02:33N 37°55' E 023°05'0 0.0
2015-Jul-26 01:31N 37°55' E 023°05'0 0.0
2015-Jul-26 00:31N 37°55' E 023°05'0 0.0
2015-Jul-25 23:33N 37°55' E 023°05'0 0.1
2015-Jul-25 17:27N 37°55' E 023°06'0 0.0
2015-Jul-25 16:29N 37°55' E 023°06'0 0.0
2015-Jul-25 15:29N 37°55' E 023°06'0 0.0
2015-Jul-25 13:10N 37°55' E 023°06'0 0.0
2015-Jul-25 12:26N 37°55' E 023°06'0 0.0
2015-Jul-25 11:14N 37°55' E 023°06'0 0.0
2015-Jul-25 10:33N 37°55' E 023°06'0 0.0
2015-Jul-25 09:25N 37°55' E 023°06'0 0.1
2015-Jul-25 08:25N 37°55' E 023°06'3 2.0
2015-Jul-25 07:09N 37°54' E 023°09'910.5
2015-Jul-25 06:17N 37°52' E 023°20'710.1
2015-Jul-25 05:33N 37°50' E 023°29'9 9.1
2015-Jul-25 04:33N 37°48' E 023°40'1010.0
2015-Jul-25 03:33N 37°40' E 023°48'5210.4
2015-Jul-24 22:33N 37°21' E 024°49'1111.4
2015-Jul-24 21:33N 37°16' E 025°02'1111.3
2015-Jul-24 20:34N 37°11' E 025°15'8 7.6
2015-Jul-24 19:33N 37°06' E 025°22'0 0.2
2015-Jul-24 18:33N 37°06' E 025°22'0 0.4
2015-Jul-24 17:34N 37°06' E 025°22'0 0.0
2015-Jul-24 16:33N 37°06' E 025°22'0 0.0
2015-Jul-24 15:33N 37°06' E 025°22'1 0.7
2015-Jul-24 14:33N 37°06' E 025°21'0 0.5
2015-Jul-24 13:34N 37°06' E 025°22'9 8.8
2015-Jul-24 12:33N 37°09' E 025°11'4 3.3
2015-Jul-24 11:26N 37°05' E 025°09'0 0.0
2015-Jul-24 04:32N 37°05' E 025°09'1 0.6
2015-Jul-24 03:32N 37°06' E 025°08'0 0.0
2015-Jul-24 02:31N 37°06' E 025°08'0 0.0
2015-Jul-24 01:33N 37°06' E 025°08'0 0.0
2015-Jul-24 00:32N 37°06' E 025°08'0 0.0
2015-Jul-23 23:30N 37°06' E 025°08'0 0.0
2015-Jul-23 22:31N 37°06' E 025°08'0 0.0
2015-Jul-23 21:32N 37°06' E 025°08'0 0.0
2015-Jul-23 20:28N 37°06' E 025°08'2 1.9
2015-Jul-23 19:33N 37°05' E 025°07'34 5.4
2015-Jul-23 13:11N 36°32' E 025°20'710.5
2015-Jul-23 12:33N 36°26' E 025°23'4 3.5
2015-Jul-23 11:32N 36°23' E 025°26'0 0.0
2015-Jul-23 10:33N 36°23' E 025°26'0 0.0
2015-Jul-23 09:33N 36°23' E 025°26'0 0.0
2015-Jul-23 08:33N 36°23' E 025°26'0 0.0
2015-Jul-23 07:33N 36°23' E 025°26'0 0.0
2015-Jul-23 06:32N 36°23' E 025°26'0 0.0
2015-Jul-23 05:32N 36°23' E 025°26'0 0.0
2015-Jul-23 04:33N 36°23' E 025°26'0 0.0
2015-Jul-23 03:33N 36°23' E 025°26'6 6.3
2015-Jul-23 02:33N 36°29' E 025°22'1010.4
2015-Jul-23 01:33N 36°31' E 025°34'1110.9
2015-Jul-23 00:33N 36°33' E 025°47'1010.1
2015-Jul-22 23:32N 36°35' E 025°60'16 1.9
2015-Jul-22 15:10N 36°37' E 026°19'14 8.6
2015-Jul-22 13:33N 36°44' E 026°34'1010.1
2015-Jul-22 12:33N 36°47' E 026°46'21 2.9
2015-Jul-22 05:07N 36°55' E 027°11'5 0.1
2015-Jul-20 16:33N 36°56' E 027°17'1010.5
2015-Jul-20 15:33N 36°56' E 027°04'4 0.2
2015-Jul-19 17:08N 36°55' E 026°59'7 9.6
2015-Jul-19 16:27N 36°57' E 026°51'1110.0
2015-Jul-19 15:20N 37°02' E 026°38'8 9.8
2015-Jul-19 14:29N 37°05' E 026°29'  

Dump ship's entire track history